94NY weather

St Bernard Field
Union Springs, New York, United States

Public forecast

Using degrees Fahrenheit for public forecast. Weather courtesy of forecast.io.

Closest aviation weather report (METAR) to St Bernard Field

Closest report is Penn Yan Airport, 19.5 nm (36.2 km) SW. Retrieved 2020/01/27 07:53 UTC (35 minutes ago):

KPEO 270753Z AUTO 25009KT 9SM BKN030 OVC055 02/M02 A2964 RMK AO2 SNB42E53 SLP044 P0000 T00171022

Closest aviation forecast (TAF) to St Bernard Field

Closest forecast is Ithaca Tompkins Regional Airport, 22.5 nm (41.7 km) SSE. Retrieved 2020/01/27 06:48 UTC (2 hours ago):

TAF KITH 270545Z 2706/2806 22007KT 6SM -SN BR SCT015 OVC025 TEMPO 2709/2713 2SM -SHSN BR OVC013 FM271500 29011KT P6SM -SHSN FEW018 OVC025 FM272200 30009KT 4SM -SHSN BR OVC011